Time;durP1;ratioP1;P1;durP2;ratioP2;P2;SDS_P1;SDS_P2;PMS_P1;PMS_P2;Temp;Humidity;BMP_temperature;BMP_pressure;BME280_temperature;BME280_humidity;BME280_pressure;Samples;Min_cycle;Max_cycle;Signal;HPM_P1;HPM_P2
2022/06/29 00:00:20;;;;;;;4.43;2.10;;;;;;;22.99;62.16;101538.94;7393277;19;20108;-47
2022/06/29 00:02:49;;;;;;;3.47;1.90;;;;;;;22.94;60.95;101540.34;7397842;19;20018;-46
2022/06/29 00:05:21;;;;;;;3.20;2.10;;;;;;;23.01;61.35;101538.84;7398972;19;20062;-44
2022/06/29 00:07:53;;;;;;;4.88;2.30;;;;;;;23.11;60.10;101546.91;7402179;19;20011;-46
2022/06/29 00:10:23;;;;;;;;;;;;;;;23.08;60.14;101545.34;7401250;19;20484;-44
2022/06/29 00:12:52;;;;;;;3.85;2.25;;;;;;;23.06;60.28;101544.63;7398257;19;19911;-45
2022/06/29 00:15:21;;;;;;;3.35;2.20;;;;;;;22.89;61.13;101531.88;7396194;19;20033;-44
2022/06/29 00:17:51;;;;;;;6.32;2.45;;;;;;;22.93;60.54;101534.13;7396777;19;20014;-44
2022/06/29 00:20:21;;;;;;;2.80;1.90;;;;;;;22.80;61.88;101531.66;7396239;19;20021;-44
2022/06/29 00:22:53;;;;;;;5.13;2.10;;;;;;;22.70;62.31;101528.09;7402949;19;20037;-44
2022/06/29 00:25:22;;;;;;;4.47;2.20;;;;;;;22.84;62.30;101528.72;7398415;19;20019;-46
2022/06/29 00:27:51;;;;;;;4.00;2.20;;;;;;;22.76;62.11;101529.38;7398214;19;20562;-44
2022/06/29 00:30:21;;;;;;;4.72;2.03;;;;;;;22.85;61.77;101530.44;7397750;19;20019;-47
2022/06/29 00:32:49;;;;;;;5.57;2.10;;;;;;;22.56;62.89;101529.25;7396549;19;20022;-46
2022/06/29 00:35:18;;;;;;;3.55;2.33;;;;;;;22.69;62.60;101531.72;7393438;19;20018;-47
2022/06/29 00:37:47;;;;;;;3.85;2.33;;;;;;;22.77;61.85;101515.06;7394720;19;20021;-45
2022/06/29 00:40:19;;;;;;;3.60;2.22;;;;;;;22.61;63.99;101520.88;7392772;19;20015;-44
2022/06/29 00:42:48;;;;;;;5.47;2.38;;;;;;;22.63;63.76;101519.72;7395193;19;20054;-44
2022/06/29 00:45:17;;;;;;;5.18;2.60;;;;;;;22.74;63.12;101520.66;7394300;19;20029;-45
2022/06/29 00:47:46;;;;;;;4.22;2.38;;;;;;;22.65;64.31;101516.94;7393775;19;20090;-46
2022/06/29 00:50:16;;;;;;;5.50;2.28;;;;;;;22.73;63.69;101516.28;7392859;19;20028;-45
2022/06/29 00:52:46;;;;;;;3.72;2.67;;;;;;;22.40;64.02;101505.66;7395424;19;20018;-45
2022/06/29 00:55:22;;;;;;;3.70;2.30;;;;;;;22.45;64.24;101505.25;7392350;19;20020;-44
2022/06/29 00:57:55;;;;;;;3.30;2.50;;;;;;;22.53;63.75;101505.47;7393521;19;20018;-46
2022/06/29 01:00:23;;;;;;;5.10;2.60;;;;;;;22.69;63.93;101498.81;7391521;19;20011;-47
2022/06/29 01:02:53;;;;;;;4.18;2.25;;;;;;;22.63;64.61;101503.69;7392362;19;20011;-44
2022/06/29 01:05:22;;;;;;;4.82;2.42;;;;;;;22.32;65.06;101502.72;7390566;19;20018;-45
2022/06/29 01:07:52;;;;;;;5.90;2.67;;;;;;;22.42;65.03;101495.69;7392297;19;20010;-44
2022/06/29 01:10:24;;;;;;;5.22;2.40;;;;;;;22.35;65.52;101499.88;7392097;19;20014;-46
2022/06/29 01:12:54;;;;;;;3.35;2.03;;;;;;;22.41;65.60;101496.66;7394078;19;20014;-44
2022/06/29 01:15:23;;;;;;;4.07;2.35;;;;;;;22.37;66.42;101492.56;7392191;19;20015;-47
2022/06/29 01:17:52;;;;;;;4.65;2.20;;;;;;;22.35;64.60;101494.53;7394209;19;20516;-44
2022/06/29 01:20:21;;;;;;;6.13;2.83;;;;;;;22.39;65.32;101492.41;7390821;19;20007;-44
2022/06/29 01:22:53;;;;;;;4.30;2.30;;;;;;;22.34;65.52;101495.50;7392217;19;20053;-44
2022/06/29 01:25:22;;;;;;;5.53;2.85;;;;;;;22.33;67.11;101500.97;7390548;19;20066;-45
2022/06/29 01:27:51;;;;;;;3.97;2.47;;;;;;;22.32;67.04;101492.03;7391294;19;20463;-45
2022/06/29 01:30:20;;;;;;;4.25;2.50;;;;;;;22.19;66.86;101497.56;7390401;19;20015;-44
2022/06/29 01:32:49;;;;;;;5.22;2.53;;;;;;;22.08;68.68;101481.63;7390983;19;20018;-46
2022/06/29 01:35:22;;;;;;;4.65;2.80;;;;;;;22.15;66.61;101490.81;7389132;19;20019;-43
2022/06/29 01:37:54;;;;;;;;;;;;;;;22.12;67.26;101483.91;7392220;19;20021;-44
2022/06/29 01:40:23;;;;;;;5.47;2.80;;;;;;;22.20;67.71;101488.59;7390028;19;19935;-45
2022/06/29 01:42:52;;;;;;;3.38;2.60;;;;;;;22.05;67.61;101485.38;7391885;19;20018;-45
2022/06/29 01:45:21;;;;;;;7.25;2.97;;;;;;;21.89;67.94;101482.25;7391469;19;20014;-46
2022/06/29 01:47:50;;;;;;;3.13;2.47;;;;;;;21.78;69.95;101476.00;7391465;19;20013;-45
2022/06/29 01:50:19;;;;;;;6.32;2.92;;;;;;;21.71;70.27;101473.97;7390898;19;20010;-45
2022/06/29 01:52:48;;;;;;;3.33;2.85;;;;;;;21.85;70.02;101475.47;7391140;19;20015;-45
2022/06/29 01:55:20;;;;;;;4.03;2.78;;;;;;;22.09;69.90;101478.81;7389838;19;20118;-45
2022/06/29 01:57:50;;;;;;;5.55;3.15;;;;;;;22.00;69.56;101474.22;7392507;19;20010;-44
2022/06/29 02:00:19;;;;;;;4.63;3.22;;;;;;;22.17;68.04;101480.00;7390542;19;20022;-45
2022/06/29 02:02:48;;;;;;;5.35;3.00;;;;;;;21.79;70.63;101468.81;7390970;19;20503;-48
2022/06/29 02:05:16;;;;;;;4.45;2.90;;;;;;;21.87;68.41;101476.22;7388819;19;20034;-44
2022/06/29 02:07:45;;;;;;;5.07;2.65;;;;;;;22.01;68.81;101473.25;7390901;19;20507;-44
2022/06/29 02:10:14;;;;;;;5.13;3.00;;;;;;;21.88;69.50;101473.41;7389935;19;20018;-48
2022/06/29 02:12:46;;;;;;;5.40;3.30;;;;;;;21.78;70.86;101462.66;7391287;19;20434;-45
2022/06/29 02:15:15;;;;;;;3.85;2.78;;;;;;;21.66;70.64;101460.13;7396953;19;20478;-44
2022/06/29 02:17:43;;;;;;;3.45;3.00;;;;;;;21.70;69.62;101457.09;7401317;19;20022;-44
2022/06/29 02:20:14;;;;;;;5.30;3.30;;;;;;;21.75;70.64;101456.75;7398957;19;20015;-45
2022/06/29 02:22:42;;;;;;;5.05;3.10;;;;;;;21.62;71.39;101451.56;7396004;19;20041;-45
2022/06/29 02:25:12;;;;;;;6.68;3.63;;;;;;;21.69;70.93;101449.22;7395788;19;20017;-49
2022/06/29 02:27:42;;;;;;;5.55;3.40;;;;;;;21.55;73.25;101450.31;7398231;19;20010;-44
2022/06/29 02:30:15;;;;;;;4.60;3.40;;;;;;;21.54;72.61;101448.66;7397168;19;20086;-47
2022/06/29 02:35:26;;;;;;;3.78;3.33;;;;;;;21.47;74.48;101445.59;7394935;19;20463;-46
2022/06/29 02:37:55;;;;;;;4.40;3.30;;;;;;;21.69;73.23;101447.41;7396256;19;20017;-44
2022/06/29 02:40:24;;;;;;;5.40;3.33;;;;;;;21.83;70.98;101451.59;7395494;19;20506;-44
2022/06/29 02:42:53;;;;;;;4.43;3.78;;;;;;;21.75;72.83;101440.72;7392287;19;20030;-44
2022/06/29 02:45:24;;;;;;;4.13;3.65;;;;;;;21.69;72.40;101446.53;7393830;19;20019;-45
2022/06/29 02:47:53;;;;;;;6.40;4.13;;;;;;;21.80;71.10;101440.34;7396118;19;20109;-47
2022/06/29 02:50:22;;;;;;;6.00;3.90;;;;;;;21.76;72.36;101435.28;7395757;19;20006;-45
2022/06/29 02:52:51;;;;;;;6.82;3.97;;;;;;;21.80;71.71;101433.19;7396281;19;20030;-44
2022/06/29 02:55:20;;;;;;;7.43;4.25;;;;;;;21.73;71.33;101432.00;7392429;19;20025;-43
2022/06/29 02:57:49;;;;;;;5.35;3.55;;;;;;;21.73;72.27;101423.97;7395733;19;20073;-43
2022/06/29 03:00:18;;;;;;;6.13;4.47;;;;;;;21.60;73.82;101427.66;7395542;19;20046;-44
2022/06/29 03:02:50;;;;;;;5.88;4.55;;;;;;;21.67;73.29;101427.16;7394310;19;20021;-43
2022/06/29 03:05:19;;;;;;;4.85;4.30;;;;;;;21.63;72.27;101423.88;7394118;19;20014;-46
2022/06/29 03:07:48;;;;;;;5.47;4.35;;;;;;;21.49;73.99;101419.66;7395813;19;20015;-45
2022/06/29 03:10:17;;;;;;;5.50;4.40;;;;;;;21.27;74.48;101421.38;7394935;19;20013;-43
2022/06/29 03:12:45;;;;;;;5.53;3.88;;;;;;;21.35;74.02;101420.78;7395561;19;20023;-45
2022/06/29 03:15:15;;;;;;;7.03;4.65;;;;;;;21.42;75.61;101407.81;7393845;19;20011;-44
2022/06/29 03:17:43;;;;;;;4.95;4.25;;;;;;;21.51;73.94;101412.41;7394414;19;20484;-44
2022/06/29 03:20:16;;;;;;;5.53;4.38;;;;;;;21.51;74.29;101409.75;7394379;19;20002;-43
2022/06/29 03:22:46;;;;;;;4.63;4.20;;;;;;;21.55;72.94;101411.19;7394270;19;20019;-44
2022/06/29 03:25:15;;;;;;;6.18;4.32;;;;;;;21.52;73.23;101402.56;7394050;19;20021;-44
2022/06/29 03:27:44;;;;;;;5.68;4.55;;;;;;;21.44;75.22;101393.34;7394634;19;20025;-44
2022/06/29 03:30:15;;;;;;;6.25;4.78;;;;;;;21.49;75.63;101394.81;7395322;19;20345;-44
2022/06/29 03:32:44;;;;;;;8.05;4.18;;;;;;;21.34;75.38;101395.06;7395666;19;20023;-44
2022/06/29 03:35:15;;;;;;;5.85;4.50;;;;;;;21.14;77.94;101394.03;7393750;19;20007;-45
2022/06/29 03:37:44;;;;;;;5.40;4.70;;;;;;;21.25;75.72;101390.50;7395567;19;20025;-47
2022/06/29 03:40:14;;;;;;;6.85;4.50;;;;;;;21.24;76.82;101394.97;7394953;19;20010;-46
2022/06/29 03:42:43;;;;;;;4.93;4.38;;;;;;;21.27;75.68;101393.88;7393974;19;20025;-45
2022/06/29 03:45:13;;;;;;;4.90;4.40;;;;;;;21.38;74.89;101396.53;7393640;19;20016;-46
2022/06/29 03:47:42;;;;;;;7.07;4.55;;;;;;;21.30;75.60;101406.13;7394255;19;20014;-43
2022/06/29 03:50:12;;;;;;;7.40;4.55;;;;;;;21.24;76.14;101399.47;7394874;19;20499;-44
2022/06/29 03:52:43;;;;;;;8.50;4.57;;;;;;;21.02;77.63;101395.84;7394793;19;20030;-45
2022/06/29 03:55:12;;;;;;;6.30;4.30;;;;;;;21.07;77.57;101403.47;7394106;19;20022;-45
2022/06/29 03:57:41;;;;;;;5.82;4.90;;;;;;;21.23;75.83;101395.97;7395301;19;20368;-45
2022/06/29 04:00:13;;;;;;;7.60;4.88;;;;;;;21.03;78.04;101389.56;7394206;19;20018;-44
2022/06/29 04:02:42;;;;;;;6.18;4.93;;;;;;;21.12;77.77;101393.31;7392904;19;20015;-45
2022/06/29 04:05:12;;;;;;;6.93;5.20;;;;;;;21.14;76.94;101388.69;7392548;19;20018;-48
2022/06/29 04:07:43;;;;;;;7.70;4.72;;;;;;;21.16;76.69;101397.44;7393691;19;20031;-44
2022/06/29 04:10:12;;;;;;;6.07;4.68;;;;;;;21.08;77.92;101386.53;7393932;19;20014;-44
2022/06/29 04:12:41;;;;;;;5.53;4.78;;;;;;;21.09;77.54;101394.41;7394084;19;20021;-45
2022/06/29 04:15:11;;;;;;;5.78;5.18;;;;;;;21.08;78.83;101387.38;7392624;19;20361;-44
2022/06/29 04:17:40;;;;;;;5.70;5.10;;;;;;;21.19;77.66;101390.97;7393728;19;20015;-45
2022/06/29 04:21:05;;;;;;;5.75;5.15;;;;;;;21.28;76.63;101395.59;7393643;19;20019;-46
2022/06/29 04:23:02;;;;;;;6.65;4.68;;;;;;;21.18;77.68;101390.13;7392609;19;20796;-46
2022/06/29 04:25:31;;;;;;;5.30;4.80;;;;;;;21.05;78.81;101389.44;7390560;19;20049;-46
2022/06/29 04:28:00;;;;;;;8.50;5.70;;;;;;;21.18;79.38;101390.13;7393227;19;20011;-44
2022/06/29 04:30:29;;;;;;;9.85;5.72;;;;;;;21.15;78.64;101393.06;7392672;19;20010;-45
2022/06/29 04:32:58;;;;;;;6.63;5.22;;;;;;;21.26;78.98;101378.84;7393269;19;20019;-46
2022/06/29 04:35:27;;;;;;;8.23;5.70;;;;;;;21.18;80.46;101387.47;7391552;19;20471;-47
2022/06/29 04:37:56;;;;;;;6.40;5.80;;;;;;;21.09;82.17;101382.91;7392453;19;20049;-45
2022/06/29 04:40:28;;;;;;;6.05;5.45;;;;;;;21.25;77.32;101383.34;7392896;19;20010;-45
2022/06/29 04:42:56;;;;;;;6.30;5.60;;;;;;;21.31;77.09;101382.00;7392486;19;20499;-44
2022/06/29 04:48:07;;;;;;;6.00;5.50;;;;;;;21.34;76.23;101381.75;7391102;19;20018;-46
2022/06/29 04:50:36;;;;;;;6.85;6.15;;;;;;;21.41;76.62;101384.78;7392170;19;20369;-44
2022/06/29 04:53:05;;;;;;;7.60;6.30;;;;;;;21.35;79.25;101375.44;7393155;19;20330;-47
2022/06/29 04:55:37;;;;;;;7.50;5.95;;;;;;;21.22;80.98;101364.06;7392434;19;20393;-45
2022/06/29 04:58:05;;;;;;;7.82;5.50;;;;;;;21.35;78.27;101367.47;7393162;19;20007;-44
2022/06/29 05:00:34;;;;;;;9.05;6.35;;;;;;;21.46;78.47;101376.38;7392356;19;20526;-46
2022/06/29 05:03:03;;;;;;;7.25;5.65;;;;;;;21.26;80.49;101369.06;7391130;19;20022;-44
2022/06/29 05:05:32;;;;;;;5.95;5.38;;;;;;;21.26;84.76;101370.84;7391513;19;20025;-44
2022/06/29 05:08:01;;;;;;;6.60;5.90;;;;;;;21.48;79.41;101369.97;7392468;19;20358;-45
2022/06/29 05:10:30;;;;;;;6.70;5.60;;;;;;;21.35;82.30;101362.13;7390839;19;20022;-44
2022/06/29 05:13:02;;;;;;;8.18;6.32;;;;;;;21.49;79.47;101360.13;7392020;19;20039;-45
2022/06/29 05:15:31;;;;;;;6.60;6.00;;;;;;;21.47;82.33;101367.44;7390548;19;20023;-44
2022/06/29 05:18:00;;;;;;;7.85;6.97;;;;;;;21.65;79.53;101370.41;7391843;19;20389;-45
2022/06/29 05:20:29;;;;;;;6.82;6.22;;;;;;;21.71;80.75;101369.94;7392244;19;20021;-47
2022/06/29 05:22:58;;;;;;;7.13;6.25;;;;;;;21.79;82.68;101367.44;7391106;19;20371;-46
2022/06/29 05:25:27;;;;;;;7.95;6.88;;;;;;;21.79;81.19;101367.44;7390329;19;20025;-49
2022/06/29 05:27:56;;;;;;;6.45;5.80;;;;;;;21.70;81.70;101361.06;7391967;19;20030;-45
2022/06/29 05:30:27;;;;;;;7.72;5.60;;;;;;;21.69;81.24;101358.53;7391552;19;20018;-45
2022/06/29 05:32:56;;;;;;;7.32;5.95;;;;;;;21.69;82.46;101354.06;7391687;19;20021;-44
2022/06/29 05:35:25;;;;;;;7.55;5.78;;;;;;;21.70;81.74;101357.56;7389787;19;20472;-44
2022/06/29 05:37:54;;;;;;;7.05;6.03;;;;;;;21.82;81.62;101351.22;7390890;19;20010;-45
2022/06/29 05:40:24;;;;;;;13.95;6.60;;;;;;;21.99;78.62;101354.25;7390809;19;20015;-47
2022/06/29 05:42:53;;;;;;;8.18;6.50;;;;;;;21.86;78.51;101357.13;7390002;19;20018;-47
2022/06/29 05:45:22;;;;;;;7.97;6.30;;;;;;;22.06;76.21;101360.78;7389616;19;20100;-47
2022/06/29 05:47:54;;;;;;;48.00;11.77;;;;;;;22.18;77.87;101365.09;7392608;19;20040;-47
2022/06/29 05:50:23;;;;;;;11.77;7.00;;;;;;;22.21;76.28;101359.47;7401527;19;20014;-46
2022/06/29 05:52:53;;;;;;;7.18;6.40;;;;;;;22.35;75.50;101360.16;7406443;19;20034;-46
2022/06/29 05:55:22;;;;;;;11.48;6.45;;;;;;;22.44;74.12;101352.19;7403850;19;20024;-45
2022/06/29 05:57:51;;;;;;;10.25;6.72;;;;;;;22.20;71.28;101355.09;7407773;19;20014;-49
2022/06/29 06:00:20;;;;;;;9.02;6.38;;;;;;;22.57;70.61;101354.66;7406343;19;20014;-50
2022/06/29 06:02:49;;;;;;;10.20;6.50;;;;;;;22.50;73.21;101363.34;7400271;19;20030;-50
2022/06/29 06:05:21;;;;;;;10.13;7.20;;;;;;;22.59;70.79;101352.69;7397995;19;20026;-45
2022/06/29 06:07:50;;;;;;;7.53;6.60;;;;;;;22.68;70.70;101352.84;7400577;19;20011;-45
2022/06/29 06:10:19;;;;;;;6.97;6.25;;;;;;;22.67;72.73;101357.38;7399064;19;20018;-46
2022/06/29 06:12:48;;;;;;;9.57;6.93;;;;;;;22.62;71.84;101349.75;7399802;19;20026;-46
2022/06/29 06:15:17;;;;;;;6.90;6.20;;;;;;;22.87;69.68;101350.28;7396839;19;20025;-46
2022/06/29 06:17:45;;;;;;;6.38;5.55;;;;;;;22.83;73.12;101354.19;7396938;19;20010;-45
2022/06/29 06:20:14;;;;;;;6.85;6.05;;;;;;;22.81;70.24;101359.66;7397936;19;20756;-44
2022/06/29 06:22:46;;;;;;;8.80;5.93;;;;;;;22.93;70.27;101356.91;7398750;19;20025;-45
2022/06/29 06:25:15;;;;;;;8.95;6.60;;;;;;;22.98;67.46;101360.00;7395502;19;20022;-45
2022/06/29 06:27:43;;;;;;;15.18;7.22;;;;;;;23.02;67.83;101353.41;7398004;19;20018;-44
2022/06/29 06:30:14;;;;;;;8.30;6.28;;;;;;;23.01;68.64;101357.06;7397473;19;20068;-45
2022/06/29 06:32:42;;;;;;;10.13;6.35;;;;;;;22.97;71.62;101356.50;7398271;19;20018;-48
2022/06/29 06:35:12;;;;;;;9.77;6.78;;;;;;;23.05;73.15;101355.78;7395867;19;20014;-45
2022/06/29 06:37:40;;;;;;;8.73;6.68;;;;;;;23.19;70.27;101357.28;7397887;19;20015;-44
2022/06/29 06:42:55;;;;;;;9.20;7.57;;;;;;;23.41;68.53;101358.00;7396214;19;20052;-45
2022/06/29 06:45:24;;;;;;;8.60;6.65;;;;;;;23.57;68.19;101360.13;7394168;19;20047;-47
2022/06/29 06:47:53;;;;;;;11.00;7.68;;;;;;;23.58;69.39;101360.00;7395130;19;20006;-46
2022/06/29 06:50:21;;;;;;;10.30;7.40;;;;;;;23.54;69.59;101353.25;7397178;19;20029;-45
2022/06/29 06:52:50;;;;;;;12.30;8.00;;;;;;;23.53;69.18;101353.38;7400311;19;20026;-49
2022/06/29 06:55:22;;;;;;;10.13;7.80;;;;;;;23.59;67.40;101359.03;7395951;19;20018;-45
2022/06/29 06:57:51;;;;;;;9.38;7.25;;;;;;;23.75;69.01;101354.94;7395446;19;20021;-46
2022/06/29 07:00:20;;;;;;;9.52;7.35;;;;;;;23.64;67.08;101355.91;7395901;19;20015;-45
2022/06/29 07:02:49;;;;;;;13.48;7.43;;;;;;;23.88;66.34;101357.38;7396277;19;20030;-44
2022/06/29 07:05:19;;;;;;;8.00;6.55;;;;;;;23.84;69.49;101351.41;7394316;19;20029;-46
2022/06/29 07:07:48;;;;;;;9.70;7.70;;;;;;;23.79;67.50;101346.47;7397829;19;20053;-45
2022/06/29 07:10:17;;;;;;;11.95;7.55;;;;;;;23.92;67.99;101342.72;7395591;19;20014;-44
2022/06/29 07:12:48;;;;;;;13.18;8.57;;;;;;;24.00;67.83;101351.72;7396715;19;20015;-45
2022/06/29 07:15:18;;;;;;;11.20;7.60;;;;;;;23.93;67.28;101344.41;7394216;19;20010;-45
2022/06/29 07:17:47;;;;;;;11.30;8.57;;;;;;;23.85;67.95;101335.19;7396412;19;20018;-45
2022/06/29 07:20:16;;;;;;;9.00;7.75;;;;;;;23.90;69.06;101342.00;7395621;19;20033;-47
2022/06/29 07:22:45;;;;;;;14.73;8.25;;;;;;;24.01;69.37;101337.34;7395513;19;20015;-45
2022/06/29 07:25:13;;;;;;;10.73;7.70;;;;;;;23.99;69.23;101341.16;7394094;19;20098;-45
2022/06/29 07:27:43;;;;;;;9.25;7.45;;;;;;;24.04;70.30;101333.53;7396277;19;20011;-44
2022/06/29 07:30:15;;;;;;;10.32;8.07;;;;;;;24.07;69.85;101335.94;7395341;19;20361;-47
2022/06/29 07:32:44;;;;;;;10.00;7.68;;;;;;;24.23;69.42;101340.69;7395515;19;20416;-46
2022/06/29 07:35:13;;;;;;;8.75;7.63;;;;;;;24.30;69.27;101335.56;7393670;19;20029;-48
2022/06/29 07:37:42;;;;;;;8.15;7.32;;;;;;;24.43;67.93;101332.56;7394902;19;20364;-46
2022/06/29 07:40:13;;;;;;;9.52;7.38;;;;;;;24.61;66.74;101335.38;7394940;19;20403;-44
2022/06/29 07:42:41;;;;;;;11.02;7.47;;;;;;;24.65;67.26;101329.56;7394857;19;20015;-46
2022/06/29 07:45:12;;;;;;;9.75;7.97;;;;;;;24.62;69.45;101329.88;7393828;19;20025;-45
2022/06/29 07:47:44;;;;;;;9.27;8.30;;;;;;;24.61;69.42;101327.34;7395429;19;20014;-46
2022/06/29 07:50:14;;;;;;;12.30;7.35;;;;;;;24.73;65.19;101333.34;7394985;19;20022;-44
2022/06/29 07:52:44;;;;;;;7.22;6.43;;;;;;;24.82;65.18;101333.28;7395621;19;20419;-45
2022/06/29 07:55:13;;;;;;;8.82;6.15;;;;;;;24.81;64.96;101336.97;7393543;19;20495;-44
2022/06/29 07:57:43;;;;;;;6.60;5.82;;;;;;;24.80;64.32;101329.06;7395862;19;20073;-45
2022/06/29 08:00:14;;;;;;;7.40;6.72;;;;;;;24.88;65.30;101332.69;7395954;19;20036;-45
2022/06/29 08:02:48;;;;;;;6.75;5.25;;;;;;;25.06;66.45;101321.19;7395510;19;20010;-46
2022/06/29 08:05:17;;;;;;;8.25;6.20;;;;;;;25.16;63.09;101330.00;7393228;19;20014;-45
2022/06/29 08:07:45;;;;;;;9.40;6.22;;;;;;;25.36;64.50;101332.56;7397085;19;20025;-45
2022/06/29 08:10:14;;;;;;;6.85;4.80;;;;;;;25.42;60.03;101325.75;7393423;19;20025;-47
2022/06/29 08:12:43;;;;;;;8.80;4.97;;;;;;;25.51;58.60;101325.66;7394742;19;20007;-46
2022/06/29 08:15:15;;;;;;;10.38;5.32;;;;;;;25.71;58.28;101330.88;7394393;19;20019;-46
2022/06/29 08:17:48;;;;;;;6.55;4.93;;;;;;;25.73;57.75;101329.72;7395774;19;20017;-48
2022/06/29 08:20:18;;;;;;;7.25;4.85;;;;;;;25.80;56.98;101326.41;7396071;19;20015;-46
2022/06/29 08:22:47;;;;;;;9.60;5.03;;;;;;;26.00;57.91;101327.94;7395892;19;20018;-45
2022/06/29 08:25:16;;;;;;;9.48;3.90;;;;;;;25.84;54.99;101328.63;7394931;19;20368;-46
2022/06/29 08:27:45;;;;;;;6.82;2.53;;;;;;;25.99;53.77;101334.28;7395551;19;20011;-47
2022/06/29 08:30:16;;;;;;;5.20;2.60;;;;;;;26.17;53.64;101334.25;7394730;19;20362;-48
2022/06/29 08:32:47;;;;;;;4.35;2.50;;;;;;;25.96;51.36;101331.06;7394896;19;20329;-47
2022/06/29 08:35:19;;;;;;;5.82;3.17;;;;;;;26.15;53.06;101335.41;7393766;19;20398;-46
2022/06/29 08:37:49;;;;;;;4.43;2.60;;;;;;;26.29;52.71;101331.31;7395354;19;20011;-48
2022/06/29 08:40:19;;;;;;;8.32;3.10;;;;;;;26.40;51.76;101326.50;7394754;19;20014;-46
2022/06/29 08:42:49;;;;;;;5.20;2.95;;;;;;;26.45;52.81;101327.88;7395083;19;20024;-45
2022/06/29 08:45:18;;;;;;;7.57;2.83;;;;;;;26.63;52.22;101323.25;7393395;19;20014;-46
2022/06/29 08:47:49;;;;;;;5.13;2.90;;;;;;;26.42;52.68;101323.66;7394007;19;20010;-48
2022/06/29 08:50:18;;;;;;;6.63;3.10;;;;;;;26.63;54.85;101319.75;7394086;19;20021;-46
2022/06/29 08:52:49;;;;;;;5.88;2.85;;;;;;;26.75;53.21;101313.94;7394652;19;20026;-49
2022/06/29 08:55:21;;;;;;;5.18;2.58;;;;;;;26.41;52.23;101316.63;7392067;19;20014;-48
2022/06/29 08:57:49;;;;;;;6.35;2.53;;;;;;;26.66;55.54;101320.25;7393619;19;20018;-50
2022/06/29 09:00:19;;;;;;;8.55;3.38;;;;;;;26.91;52.98;101309.63;7392956;19;20006;-47
2022/06/29 09:02:50;;;;;;;10.23;3.40;;;;;;;27.09;54.59;101307.66;7394906;19;20109;-47
2022/06/29 09:05:19;;;;;;;7.47;3.35;;;;;;;27.21;53.68;101318.94;7392854;19;20479;-50
2022/06/29 09:07:48;;;;;;;5.88;3.55;;;;;;;27.28;51.61;101305.66;7393904;19;20338;-46
2022/06/29 09:10:23;;;;;;;8.85;3.40;;;;;;;27.25;53.12;101320.28;7393763;19;20432;-45
2022/06/29 09:12:54;;;;;;;5.82;3.75;;;;;;;27.47;54.42;101323.38;7394143;19;20014;-45
2022/06/29 09:15:32;;;;;;;5.85;3.30;;;;;;;27.44;54.78;101321.03;7393308;19;20330;-45
2022/06/29 09:18:06;;;;;;;4.32;2.70;;;;;;;26.97;52.15;101321.56;7393877;19;20763;-45
2022/06/29 09:20:43;;;;;;;9.48;3.40;;;;;;;27.14;55.57;101315.22;7393197;19;20011;-45
2022/06/29 09:23:12;;;;;;;4.78;3.20;;;;;;;27.25;52.67;101308.66;7392686;19;20372;-45
2022/06/29 09:25:41;;;;;;;4.40;2.40;;;;;;;27.30;51.53;101310.88;7390963;19;20019;-47
2022/06/29 09:28:25;;;;;;;3.50;2.60;;;;;;;27.14;53.38;101317.91;7393660;19;20025;-45
2022/06/29 09:30:55;;;;;;;7.93;2.78;;;;;;;27.39;53.09;101318.81;7393101;19;20010;-45
2022/06/29 09:33:28;;;;;;;4.68;2.67;;;;;;;27.35;50.06;101312.09;7392826;19;20029;-46
2022/06/29 09:36:10;;;;;;;4.18;2.50;;;;;;;26.92;51.24;101313.97;7393458;19;20086;-47
2022/06/29 09:38:40;;;;;;;4.60;2.90;;;;;;;26.94;53.38;101310.13;7391966;19;20017;-45
2022/06/29 09:41:10;;;;;;;5.70;2.40;;;;;;;27.33;49.77;101314.06;7392810;19;20014;-47
2022/06/29 09:43:41;;;;;;;4.47;2.50;;;;;;;27.87;48.97;101315.44;7391406;19;20026;-46
2022/06/29 09:46:13;;;;;;;4.20;2.28;;;;;;;27.97;45.15;101316.13;7392109;19;20034;-46
2022/06/29 09:48:46;;;;;;;4.07;2.30;;;;;;;28.19;45.26;101311.06;7391443;19;20025;-46
2022/06/29 09:54:01;;;;;;;4.75;2.50;;;;;;;27.85;42.33;101307.53;7391221;19;20511;-48
2022/06/29 09:56:32;;;;;;;4.53;2.20;;;;;;;27.78;43.72;101307.41;7393009;19;20029;-45
2022/06/29 09:59:02;;;;;;;5.95;2.30;;;;;;;28.31;45.48;101298.88;7391791;19;20015;-47
2022/06/29 10:04:16;;;;;;;16.77;3.55;;;;;;;28.62;45.40;101296.28;7391104;19;20019;-45
2022/06/29 10:06:45;;;;;;;4.38;1.70;;;;;;;28.05;42.24;101299.13;7392780;19;20475;-46
2022/06/29 10:09:15;;;;;;;4.97;2.35;;;;;;;28.62;42.92;101293.56;7391166;19;20096;-46
2022/06/29 10:14:50;;;;;;;3.85;1.45;;;;;;;28.86;39.34;101283.69;7390346;19;20503;-45
2022/06/29 10:17:38;;;;;;;3.47;1.75;;;;;;;28.68;40.37;101285.81;7389146;19;20029;-47
2022/06/29 10:20:33;;;;;;;7.80;2.42;;;;;;;28.88;41.56;101289.72;7391258;19;20023;-46
2022/06/29 10:23:01;;;;;;;6.78;2.60;;;;;;;29.08;40.81;101281.19;7391466;19;20018;-48
2022/06/29 10:25:30;;;;;;;3.95;2.00;;;;;;;29.15;40.86;101282.16;7389264;19;20018;-48
2022/06/29 10:28:26;;;;;;;3.15;1.77;;;;;;;28.91;41.86;101275.06;7390675;19;20010;-45
2022/06/29 10:30:55;;;;;;;2.70;1.90;;;;;;;28.98;40.71;101281.41;7390854;19;20014;-47
2022/06/29 10:33:37;;;;;;;5.35;2.05;;;;;;;29.02;43.06;101287.31;7390332;19;20017;-47
2022/06/29 10:36:11;;;;;;;6.95;1.83;;;;;;;28.46;40.86;101282.84;7398240;19;20026;-45
2022/06/29 10:39:10;;;;;;;2.75;1.52;;;;;;;28.89;39.43;101287.91;7398450;19;20049;-47
2022/06/29 10:45:02;;;;;;;5.25;2.05;;;;;;;29.49;41.71;101287.16;7397176;19;20020;-47
2022/06/29 10:47:33;;;;;;;2.60;1.50;;;;;;;29.37;36.83;101285.88;7399833;19;20043;-50
2022/06/29 10:50:23;;;;;;;4.43;1.40;;;;;;;29.63;37.09;101292.75;7397708;19;20010;-46
2022/06/29 10:52:56;;;;;;;4.60;1.77;;;;;;;29.94;38.03;101284.56;7397552;19;20014;-47
2022/06/29 10:55:27;;;;;;;3.75;1.70;;;;;;;29.89;37.26;101278.03;7396073;19;20094;-45
2022/06/29 10:57:57;;;;;;;3.95;1.50;;;;;;;29.89;37.77;101278.88;7397460;19;20032;-50
2022/06/29 11:00:28;;;;;;;3.00;1.50;;;;;;;29.82;37.21;101272.50;7395770;19;20452;-46
2022/06/29 11:02:57;;;;;;;4.50;1.88;;;;;;;30.05;37.52;101275.16;7397507;19;20090;-49
2022/06/29 11:05:26;;;;;;;3.47;1.45;;;;;;;30.17;36.29;101273.66;7395125;19;20477;-49
2022/06/29 11:13:24;;;;;;;2.13;1.20;;;;;;;30.25;33.75;101269.19;7394369;19;20535;-47
2022/06/29 11:15:54;;;;;;;22.75;2.53;;;;;;;30.37;35.37;101267.69;7397457;19;20041;-49
2022/06/29 11:18:26;;;;;;;2.60;1.42;;;;;;;30.76;33.55;101257.56;7400477;19;20014;-48
2022/06/29 11:21:02;;;;;;;13.65;2.83;;;;;;;30.83;32.07;101248.50;7402945;19;20022;-51
2022/06/29 11:23:35;;;;;;;3.80;1.33;;;;;;;31.38;33.69;101256.97;7402242;19;20011;-48
2022/06/29 11:26:06;;;;;;;6.80;2.50;;;;;;;31.84;32.41;101258.41;7403436;19;20385;-49
2022/06/29 11:28:40;;;;;;;4.13;1.88;;;;;;;32.05;32.91;101253.91;7400093;19;20019;-49
2022/06/29 11:31:10;;;;;;;2.60;1.30;;;;;;;32.24;33.03;101252.41;7400369;19;20040;-47
2022/06/29 11:33:43;;;;;;;2.33;1.48;;;;;;;32.64;32.21;101249.84;7400145;19;20018;-49
2022/06/29 11:36:16;;;;;;;3.00;1.67;;;;;;;31.94;32.75;101246.34;7398175;19;20010;-47
2022/06/29 11:38:49;;;;;;;7.85;2.40;;;;;;;32.87;30.45;101256.78;7397535;19;20508;-48
2022/06/29 11:41:20;;;;;;;3.38;1.77;;;;;;;33.19;29.84;101248.94;7396586;19;20018;-50
2022/06/29 11:44:00;;;;;;;3.17;1.75;;;;;;;33.46;30.17;101242.47;7395926;19;20086;-47
2022/06/29 11:46:29;;;;;;;2.63;1.60;;;;;;;33.48;29.73;101236.00;7393567;19;20011;-45
2022/06/29 11:51:50;;;;;;;5.32;1.67;;;;;;;34.51;29.04;101232.59;7396368;19;20046;-45
2022/06/29 11:54:36;;;;;;;3.90;1.33;;;;;;;34.23;28.75;101235.63;7395060;19;20022;-46
2022/06/29 11:57:07;;;;;;;8.48;2.80;;;;;;;34.58;29.41;101233.41;7395723;19;20014;-45
2022/06/29 11:59:37;;;;;;;9.23;2.40;;;;;;;34.94;29.65;101222.94;7394292;19;20014;-46
2022/06/29 12:02:06;;;;;;;12.05;1.95;;;;;;;34.98;28.98;101216.00;7395534;19;20018;-46
2022/06/29 12:04:37;;;;;;;22.80;3.80;;;;;;;34.68;27.78;101224.75;7393885;19;20026;-45
2022/06/29 12:07:08;;;;;;;3.53;1.70;;;;;;;34.01;29.42;101222.31;7395350;19;20015;-46